createdAt,value
2019-03-06T00:01:25.163Z,99830.79
2019-03-06T00:06:26.732Z,99831.25
2019-03-06T00:11:28.277Z,99834.69
2019-03-06T00:16:29.830Z,99842.14
2019-03-06T00:21:31.401Z,99842.71
2019-03-06T00:26:33.060Z,99846.61
2019-03-06T00:31:34.754Z,99839.62
2019-03-06T00:36:36.453Z,99844.22
2019-03-06T00:41:43.472Z,99844.92
2019-03-06T00:46:45.151Z,99843.52
2019-03-06T00:51:46.722Z,99844.58
2019-03-06T00:56:48.285Z,99854.53
2019-03-06T01:01:50.172Z,99848.44
2019-03-06T01:06:52.216Z,99849.28
2019-03-06T01:11:53.789Z,99849.04
2019-03-06T01:16:55.360Z,99847.87
2019-03-06T01:21:56.957Z,99850.13
2019-03-06T01:26:58.531Z,99842.22
2019-03-06T01:32:00.239Z,99841.86
2019-03-06T01:37:21.594Z,99844.36
2019-03-06T01:42:45.517Z,99849.25
2019-03-06T01:47:47.136Z,99846.19
2019-03-06T01:52:48.809Z,99852.52
2019-03-06T01:57:50.361Z,99847.17
2019-03-06T02:02:52.014Z,99846.82
2019-03-06T02:07:53.664Z,99846.69
2019-03-06T02:12:55.349Z,99840.53
2019-03-06T02:17:56.914Z,99843.23
2019-03-06T02:22:58.597Z,99841.59
2019-03-06T02:28:00.560Z,99844.47
2019-03-06T02:33:02.220Z,99848.27
2019-03-06T02:38:03.903Z,99848.61
2019-03-06T02:43:05.570Z,99838.12
2019-03-06T02:48:07.241Z,99845.09
2019-03-06T02:53:08.858Z,99841.69
2019-03-06T02:58:20.706Z,99831.41
2019-03-06T03:03:47.930Z,99823.86
2019-03-06T03:08:49.687Z,99833.36
2019-03-06T03:13:51.233Z,99852.47
2019-03-06T03:18:52.910Z,99841.97
2019-03-06T03:23:54.463Z,99846.34
2019-03-06T03:28:56.088Z,99845.91
2019-03-06T03:33:57.747Z,99833.03
2019-03-06T03:38:59.304Z,99833.63
2019-03-06T03:44:00.939Z,99831.75
2019-03-06T03:49:02.498Z,99831.39
2019-03-06T03:54:04.543Z,99838.47
2019-03-06T03:59:06.211Z,99830.21
2019-03-06T04:04:07.879Z,99835.04
2019-03-06T04:09:09.608Z,99836.56
2019-03-06T04:14:11.186Z,99833.27
2019-03-06T04:19:12.750Z,99820.61
2019-03-06T04:24:14.308Z,99819.33
2019-03-06T04:29:16.090Z,99817.58
2019-03-06T04:34:17.842Z,99813.09
2019-03-06T04:39:19.463Z,99800.79
2019-03-06T04:44:21.016Z,99807.41
2019-03-06T04:49:22.571Z,99812.20
2019-03-06T04:54:24.124Z,99814.45
2019-03-06T04:59:25.675Z,99810.47
2019-03-06T05:04:27.222Z,99817.91
2019-03-06T05:09:28.759Z,99823.69
2019-03-06T05:14:30.745Z,99826.77
2019-03-06T05:19:32.284Z,99832.29
2019-03-06T05:24:33.913Z,99839.87
2019-03-06T05:29:35.465Z,99835.16
2019-03-06T05:34:37.012Z,99827.95
2019-03-06T05:39:38.688Z,99822.03
2019-03-06T05:44:40.256Z,99814.59
2019-03-06T05:49:41.841Z,99813.51
2019-03-06T05:54:43.395Z,99811.02
2019-03-06T05:59:44.951Z,99803.91
2019-03-06T06:04:46.497Z,99796.69
2019-03-06T06:09:48.043Z,99788.62
2019-03-06T06:14:49.617Z,99793.09
2019-03-06T06:19:51.414Z,99782.80
2019-03-06T06:24:52.973Z,99781.82
2019-03-06T06:29:54.523Z,99798.45
2019-03-06T06:34:56.199Z,99790.32
2019-03-06T06:39:57.735Z,99774.44
2019-03-06T06:44:59.385Z,99785.79
2019-03-06T06:50:00.951Z,99787.30
2019-03-06T06:55:24.701Z,99784.21
2019-03-06T07:01:00.607Z,99754.72
2019-03-06T07:06:20.664Z,99749.13
2019-03-06T07:11:30.267Z,99749.77
2019-03-06T07:16:45.040Z,99753.48
2019-03-06T07:21:55.774Z,99743.97
2019-03-06T07:27:10.316Z,99756.19
2019-03-06T07:32:30.100Z,99752.77
2019-03-06T07:37:46.117Z,99744.44
2019-03-06T07:43:12.992Z,99745.02
2019-03-06T07:48:33.292Z,99733.67
2019-03-06T07:53:59.027Z,99729.78
2019-03-06T07:59:00.869Z,99726.08
2019-03-06T08:04:10.874Z,99697.34
2019-03-06T08:09:17.199Z,99695.61
2019-03-06T08:14:56.606Z,99694.57
2019-03-06T08:20:15.002Z,99690.69
2019-03-06T08:25:23.048Z,99674.31
2019-03-06T08:30:26.672Z,99665.83
2019-03-06T08:35:28.421Z,99667.17
2019-03-06T08:40:30.256Z,99655.58
2019-03-06T08:45:43.208Z,99667.19
2019-03-06T08:51:10.709Z,99657.89
2019-03-06T08:56:18.841Z,99653.97
2019-03-06T09:02:00.469Z,99652.32
2019-03-06T09:07:09.721Z,99634.74
2019-03-06T09:12:25.842Z,99622.45
2019-03-06T09:17:42.160Z,99637.72
2019-03-06T09:23:02.143Z,99628.36
2019-03-06T09:28:23.534Z,99616.56
2019-03-06T09:33:41.876Z,99622.94
2019-03-06T09:39:06.208Z,99628.60
2019-03-06T09:44:36.518Z,99621.75
2019-03-06T09:50:00.894Z,99611.61
2019-03-06T09:55:37.527Z,99612.28
2019-03-06T10:00:53.458Z,99599.94
2019-03-06T10:06:02.387Z,99590.69
2019-03-06T10:11:19.407Z,99577.61
2019-03-06T10:16:31.038Z,99575.50
2019-03-06T10:21:32.642Z,99573.36
2019-03-06T10:26:34.340Z,99563.86
2019-03-06T10:31:36.090Z,99567.28
2019-03-06T10:36:37.844Z,99564.84
2019-03-06T10:41:39.488Z,99549.25
2019-03-06T10:46:41.272Z,99551.78
2019-03-06T10:51:43.220Z,99557.85
2019-03-06T10:56:44.972Z,99555.78
2019-03-06T11:01:46.673Z,99551.83
2019-03-06T11:06:48.375Z,99552.05
2019-03-06T11:11:50.143Z,99548.26
2019-03-06T11:16:51.847Z,99550.25
2019-03-06T11:21:53.965Z,99545.63
2019-03-06T11:26:55.911Z,99534.76
2019-03-06T11:31:57.636Z,99521.97
2019-03-06T11:36:59.496Z,99519.66
2019-03-06T11:42:01.198Z,99516.15
2019-03-06T11:47:02.951Z,99504.34
2019-03-06T11:52:06.576Z,99481.55
2019-03-06T11:57:08.480Z,99484.56
2019-03-06T12:02:10.655Z,99471.00
2019-03-06T12:07:12.621Z,99464.83
2019-03-06T12:12:14.237Z,99417.25
2019-03-06T12:17:15.944Z,99417.25
2019-03-06T12:22:17.576Z,99401.80
2019-03-06T12:27:19.242Z,99384.59
2019-03-06T12:32:20.901Z,99382.45
2019-03-06T12:37:22.480Z,99379.30
2019-03-06T12:42:24.073Z,99363.58
2019-03-06T12:47:25.942Z,99348.28
2019-03-06T12:52:27.723Z,99340.73
2019-03-06T12:57:29.500Z,99330.09
2019-03-06T13:02:31.210Z,99322.90
2019-03-06T13:07:32.965Z,99307.91
2019-03-06T13:12:38.236Z,99295.02
2019-03-06T13:17:39.934Z,99284.02
2019-03-06T13:22:42.164Z,99261.39
2019-03-06T13:27:43.873Z,99249.84
2019-03-06T13:32:59.701Z,99236.19
2019-03-06T13:38:01.374Z,99219.23
2019-03-06T13:43:03.133Z,99208.22
2019-03-06T13:48:04.887Z,99203.89
2019-03-06T13:53:06.537Z,99200.41
2019-03-06T13:58:08.437Z,99190.46
2019-03-06T14:03:10.283Z,99182.41
2019-03-06T14:08:12.009Z,99156.29
2019-03-06T14:13:13.696Z,99152.02
2019-03-06T14:18:15.536Z,99134.50
2019-03-06T14:23:17.221Z,99122.37
2019-03-06T14:28:18.894Z,99108.02
2019-03-06T14:33:21.116Z,99096.87
2019-03-06T14:38:22.903Z,99096.61
2019-03-06T14:43:24.660Z,99081.92
2019-03-06T14:48:26.644Z,99067.55
2019-03-06T14:53:28.370Z,99073.13
2019-03-06T14:58:30.198Z,99067.59
2019-03-06T15:03:32.228Z,99075.41
2019-03-06T15:08:33.826Z,99053.95
2019-03-06T15:13:35.528Z,99049.91
2019-03-06T15:18:37.094Z,99040.36
2019-03-06T15:23:38.884Z,99033.02
2019-03-06T15:28:40.740Z,99025.22
2019-03-06T15:33:46.425Z,99007.44
2019-03-06T15:38:48.149Z,98995.44
2019-03-06T15:43:49.861Z,98991.58
2019-03-06T15:48:51.602Z,98979.06
2019-03-06T15:53:54.769Z,98981.23
2019-03-06T15:58:56.433Z,98976.66
2019-03-06T16:03:58.022Z,98977.28
2019-03-06T16:08:59.719Z,98971.21
2019-03-06T16:14:01.432Z,98973.42
2019-03-06T16:19:03.933Z,98957.19
2019-03-06T16:24:05.484Z,98944.38
2019-03-06T16:29:07.149Z,98944.69
2019-03-06T16:34:08.829Z,98943.00
2019-03-06T16:39:10.495Z,98938.19
2019-03-06T16:44:12.561Z,98934.80
2019-03-06T16:49:14.233Z,98930.50
2019-03-06T16:54:16.164Z,98918.19
2019-03-06T16:59:17.843Z,98915.19
2019-03-06T17:04:19.517Z,98910.08
2019-03-06T17:09:21.594Z,98908.56
2019-03-06T17:14:23.682Z,98907.62
2019-03-06T17:19:25.353Z,98906.17
2019-03-06T17:24:27.026Z,98897.66
2019-03-06T17:29:28.725Z,98885.22
2019-03-06T17:34:30.702Z,98883.07
2019-03-06T17:39:32.505Z,98877.02
2019-03-06T17:44:34.212Z,98862.92
2019-03-06T17:49:35.855Z,98862.70
2019-03-06T17:54:37.546Z,98861.08
2019-03-06T17:59:39.144Z,98845.39
2019-03-06T18:04:40.741Z,98852.36
2019-03-06T18:09:42.355Z,98851.64
2019-03-06T18:14:44.191Z,98856.97
2019-03-06T18:19:45.878Z,98845.41
2019-03-06T18:24:47.438Z,98829.69
2019-03-06T18:29:49.017Z,98814.63
2019-03-06T18:34:50.635Z,98808.46
2019-03-06T18:39:52.521Z,98806.55
2019-03-06T18:44:54.180Z,98808.75
2019-03-06T18:49:55.745Z,98804.39
2019-03-06T18:54:57.357Z,98803.66
2019-03-06T18:59:58.938Z,98805.56
2019-03-06T19:05:00.537Z,98809.52
2019-03-06T19:10:02.491Z,98801.56
2019-03-06T19:15:04.508Z,98790.49
2019-03-06T19:20:06.553Z,98787.44
2019-03-06T19:25:08.914Z,98783.95
2019-03-06T19:30:15.145Z,98781.39
2019-03-06T19:35:17.398Z,98773.33
2019-03-06T19:40:19.050Z,98760.17
2019-03-06T19:45:20.855Z,98749.42
2019-03-06T19:50:22.520Z,98746.17
2019-03-06T19:55:24.484Z,98740.60
2019-03-06T20:00:26.582Z,98730.78
2019-03-06T20:05:30.442Z,98716.31
2019-03-06T20:10:32.425Z,98705.94
2019-03-06T20:15:34.135Z,98708.07
2019-03-06T20:20:35.834Z,98704.09
2019-03-06T20:25:37.537Z,98702.38
2019-03-06T20:30:39.088Z,98707.63
2019-03-06T20:35:40.745Z,98702.76
2019-03-06T20:40:42.414Z,98697.39
2019-03-06T20:45:44.244Z,98700.82
2019-03-06T20:50:45.780Z,98704.56
2019-03-06T20:55:47.351Z,98708.22
2019-03-06T21:00:49.005Z,98699.81
2019-03-06T21:05:50.690Z,98687.70
2019-03-06T21:10:52.515Z,98681.75
2019-03-06T21:15:54.211Z,98686.01
2019-03-06T21:20:55.767Z,98693.61
2019-03-06T21:25:57.360Z,98703.22
2019-03-06T21:30:58.905Z,98685.15
2019-03-06T21:36:00.453Z,98676.69
2019-03-06T21:41:02.129Z,98673.45
2019-03-06T21:46:03.802Z,98657.74
2019-03-06T21:51:05.660Z,98663.00
2019-03-06T21:56:07.327Z,98660.27
2019-03-06T22:01:08.892Z,98660.66
2019-03-06T22:06:10.451Z,98655.40
2019-03-06T22:11:12.035Z,98652.16
2019-03-06T22:16:13.577Z,98650.53
2019-03-06T22:21:15.129Z,98650.73
2019-03-06T22:26:16.693Z,98634.97
2019-03-06T22:31:18.475Z,98620.81
2019-03-06T22:36:20.115Z,98612.30
2019-03-06T22:41:21.658Z,98598.62
2019-03-06T22:46:23.234Z,98597.39
2019-03-06T22:51:25.523Z,98601.64
2019-03-06T22:56:27.205Z,98599.45
2019-03-06T23:01:34.505Z,98580.75
2019-03-06T23:06:36.184Z,98568.70
2019-03-06T23:11:38.147Z,98575.59
2019-03-06T23:16:39.814Z,98566.69
2019-03-06T23:21:41.481Z,98557.09
2019-03-06T23:26:43.388Z,98548.20
2019-03-06T23:31:45.186Z,98552.23
2019-03-06T23:36:46.857Z,98551.23
2019-03-06T23:41:48.470Z,98553.64
2019-03-06T23:46:50.382Z,98537.37
2019-03-06T23:51:59.242Z,98531.81
2019-03-06T23:57:00.888Z,98534.53
